Time;durP1;ratioP1;P1;durP2;ratioP2;P2;SDS_P1;SDS_P2;PMS_P1;PMS_P2;Temp;Humidity;BMP_temperature;BMP_pressure;BME280_temperature;BME280_humidity;BME280_pressure;Samples;Min_cycle;Max_cycle;Signal;HPM_P1;HPM_P2
2021/05/28 00:01:22;;;;;;;14.38;6.13;;;;;;;;;;8320375;28;20485;-66
2021/05/28 00:05:27;;;;;;;9.43;4.70;;;;;;;;;;8298948;28;20417;-66
2021/05/28 00:09:32;;;;;;;7.57;3.92;;;;;;;;;;8290580;28;20060;-66
2021/05/28 00:13:38;;;;;;;9.02;3.97;;;;;;;;;;8290820;28;20499;-66
2021/05/28 00:17:43;;;;;;;8.48;4.18;;;;;;;;;;8292426;28;20380;-66
2021/05/28 00:21:47;;;;;;;11.40;4.28;;;;;;;;;;8272837;28;20483;-66
2021/05/28 00:25:53;;;;;;;8.38;4.07;;;;;;;;;;8291236;28;20371;-66
2021/05/28 00:30:03;;;;;;;8.65;4.40;;;;;;;;;;8273407;28;20448;-66
2021/05/28 00:34:06;;;;;;;7.25;4.10;;;;;;;;;;8290643;28;20475;-67
2021/05/28 00:38:11;;;;;;;8.27;3.97;;;;;;;;;;8291393;28;20075;-66
2021/05/28 00:42:16;;;;;;;20.88;8.45;;;;;;;;;;8290901;28;20079;-66
2021/05/28 00:46:23;;;;;;;16.52;8.10;;;;;;;;;;8290434;28;20383;-66
2021/05/28 00:50:29;;;;;;;11.50;5.60;;;;;;;;;;8290613;28;20403;-66
2021/05/28 00:54:33;;;;;;;14.27;7.70;;;;;;;;;;8292312;28;20463;-66
2021/05/28 00:58:38;;;;;;;13.75;8.50;;;;;;;;;;8290497;28;20444;-66
2021/05/28 01:02:43;;;;;;;14.93;7.35;;;;;;;;;;8291245;28;20376;-66
2021/05/28 01:06:48;;;;;;;10.80;6.13;;;;;;;;;;8289960;28;20463;-66
2021/05/28 01:10:53;;;;;;;13.15;6.68;;;;;;;;;;8289181;28;20471;-66
2021/05/28 01:14:58;;;;;;;9.40;5.38;;;;;;;;;;8290024;28;20115;-66
2021/05/28 01:19:04;;;;;;;11.15;4.80;;;;;;;;;;8289630;28;20399;-66
2021/05/28 01:23:09;;;;;;;13.35;4.78;;;;;;;;;;8290207;28;20094;-66
2021/05/28 01:27:14;;;;;;;17.55;8.43;;;;;;;;;;8290621;28;20452;-67
2021/05/28 01:31:19;;;;;;;12.18;6.93;;;;;;;;;;8289233;28;20487;-66
2021/05/28 01:35:24;;;;;;;13.35;7.53;;;;;;;;;;8289786;28;20366;-66
2021/05/28 01:39:30;;;;;;;11.82;7.57;;;;;;;;;;8294265;28;20382;-66
2021/05/28 01:43:35;;;;;;;13.35;6.38;;;;;;;;;;8278339;28;20356;-67
2021/05/28 01:47:40;;;;;;;11.45;5.28;;;;;;;;;;8294884;28;20360;-66
2021/05/28 01:51:52;;;;;;;10.32;5.18;;;;;;;;;;8297018;28;20057;-66
2021/05/28 01:55:56;;;;;;;10.93;5.72;;;;;;;;;;8277402;28;20403;-66
2021/05/28 02:00:01;;;;;;;16.77;5.95;;;;;;;;;;8296637;28;20375;-67
2021/05/28 02:04:07;;;;;;;16.05;6.85;;;;;;;;;;8296225;28;20491;-67
2021/05/28 02:08:14;;;;;;;16.75;6.95;;;;;;;;;;8296458;28;20375;-66
2021/05/28 02:12:19;;;;;;;14.63;5.80;;;;;;;;;;8296282;28;20355;-66
2021/05/28 02:16:24;;;;;;;13.50;5.75;;;;;;;;;;8294393;28;20439;-66
2021/05/28 02:20:29;;;;;;;8.50;4.40;;;;;;;;;;8277094;28;20495;-66
2021/05/28 02:24:34;;;;;;;16.05;6.65;;;;;;;;;;8277076;28;20418;-66
2021/05/28 02:28:43;;;;;;;13.00;6.63;;;;;;;;;;8294482;28;20473;-66
2021/05/28 02:32:48;;;;;;;15.23;7.25;;;;;;;;;;8293970;28;20375;-66
2021/05/28 02:36:53;;;;;;;16.95;7.50;;;;;;;;;;8294386;28;20386;-66
2021/05/28 02:40:57;;;;;;;13.35;7.55;;;;;;;;;;8294282;28;20481;-66
2021/05/28 02:45:05;;;;;;;8.75;5.55;;;;;;;;;;8293268;28;20360;-66
2021/05/28 02:49:10;;;;;;;13.68;8.52;;;;;;;;;;8295590;28;20363;-66
2021/05/28 02:53:16;;;;;;;10.65;5.32;;;;;;;;;;8295181;28;20363;-66
2021/05/28 02:57:21;;;;;;;9.20;4.68;;;;;;;;;;8294195;28;20074;-66
2021/05/28 03:01:26;;;;;;;8.93;4.55;;;;;;;;;;8293350;28;20382;-66
2021/05/28 03:05:31;;;;;;;8.68;5.03;;;;;;;;;;8293605;28;20351;-66
2021/05/28 03:09:36;;;;;;;11.27;5.03;;;;;;;;;;8292214;28;20470;-66
2021/05/28 03:13:41;;;;;;;30.27;15.48;;;;;;;;;;8292896;28;20428;-66
2021/05/28 03:17:46;;;;;;;17.92;10.15;;;;;;;;;;8274795;28;20130;-66
2021/05/28 03:26:14;;;;;;;15.02;7.60;;;;;;;;;;8292462;28;20501;-66
2021/05/28 03:30:20;;;;;;;47.28;23.02;;;;;;;;;;8294178;28;20427;-66
2021/05/28 03:34:26;;;;;;;38.45;18.38;;;;;;;;;;8292527;28;20387;-66
2021/05/28 03:38:31;;;;;;;21.10;9.02;;;;;;;;;;8274645;28;20399;-66
2021/05/28 03:42:36;;;;;;;23.75;9.43;;;;;;;;;;8274187;28;20071;-66
2021/05/28 03:46:41;;;;;;;30.17;13.65;;;;;;;;;;8291016;28;20364;-66
2021/05/28 03:50:46;;;;;;;38.47;17.63;;;;;;;;;;8291175;28;20391;-66
2021/05/28 03:54:52;;;;;;;40.05;19.70;;;;;;;;;;8293463;28;20451;-66
2021/05/28 03:58:56;;;;;;;35.53;16.80;;;;;;;;;;8292437;28;20383;-66
2021/05/28 04:03:02;;;;;;;21.75;9.27;;;;;;;;;;8291366;28;20459;-66
2021/05/28 04:07:06;;;;;;;12.45;6.78;;;;;;;;;;8293030;28;20459;-66
2021/05/28 04:11:11;;;;;;;8.32;5.00;;;;;;;;;;8291261;28;20509;-66
2021/05/28 04:15:16;;;;;;;10.18;4.72;;;;;;;;;;8291120;28;20377;-66
2021/05/28 04:19:21;;;;;;;12.73;4.22;;;;;;;;;;8290162;28;20484;-66
2021/05/28 04:23:26;;;;;;;11.32;4.50;;;;;;;;;;8291530;28;20057;-66
2021/05/28 04:27:30;;;;;;;13.77;4.30;;;;;;;;;;8292061;28;20060;-66
2021/05/28 04:31:35;;;;;;;16.80;5.57;;;;;;;;;;8273931;28;20373;-66
2021/05/28 04:35:40;;;;;;;11.93;4.50;;;;;;;;;;8272916;28;20401;-67
2021/05/28 04:39:45;;;;;;;10.60;5.05;;;;;;;;;;8291215;28;20466;-68
2021/05/28 04:43:50;;;;;;;17.90;7.32;;;;;;;;;;8292134;28;20321;-66
2021/05/28 04:47:55;;;;;;;23.75;7.28;;;;;;;;;;8292319;28;20075;-66
2021/05/28 04:52:00;;;;;;;20.98;8.55;;;;;;;;;;8290954;28;20508;-66
2021/05/28 04:56:05;;;;;;;46.15;16.17;;;;;;;;;;8290462;28;20485;-66
2021/05/28 05:00:10;;;;;;;36.53;14.00;;;;;;;;;;8291881;28;20353;-66
2021/05/28 05:04:15;;;;;;;14.48;6.60;;;;;;;;;;8290169;28;20072;-67
2021/05/28 05:08:20;;;;;;;8.95;4.25;;;;;;;;;;8292972;28;20436;-66
2021/05/28 05:12:26;;;;;;;6.88;3.75;;;;;;;;;;8292057;28;20471;-66
2021/05/28 05:16:30;;;;;;;7.30;3.45;;;;;;;;;;8297059;28;20356;-67
2021/05/28 05:20:47;;;;;;;4.13;2.63;;;;;;;;;;8298699;28;20367;-66
2021/05/28 05:24:52;;;;;;;4.70;2.67;;;;;;;;;;8297253;28;20476;-67
2021/05/28 05:28:57;;;;;;;3.90;1.90;;;;;;;;;;8298096;28;20048;-67
2021/05/28 05:33:02;;;;;;;4.95;2.17;;;;;;;;;;8295874;28;20407;-68
2021/05/28 05:37:07;;;;;;;8.93;1.77;;;;;;;;;;8295349;28;20056;-67
2021/05/28 05:41:12;;;;;;;3.05;1.80;;;;;;;;;;8295788;28;20425;-67
2021/05/28 05:45:17;;;;;;;4.95;1.52;;;;;;;;;;8295251;28;20451;-68
2021/05/28 05:49:22;;;;;;;4.15;1.45;;;;;;;;;;8295350;28;20459;-67
2021/05/28 05:53:27;;;;;;;1.20;1.10;;;;;;;;;;8277033;28;20371;-67
2021/05/28 05:57:32;;;;;;;4.05;1.17;;;;;;;;;;8294851;28;20087;-67
2021/05/28 06:01:37;;;;;;;0.77;0.77;;;;;;;;;;8295794;28;20387;-67
2021/05/28 06:05:41;;;;;;;3.08;1.10;;;;;;;;;;8294633;28;20475;-67
2021/05/28 06:09:47;;;;;;;1.17;0.88;;;;;;;;;;8294619;28;20052;-68
2021/05/28 06:13:52;;;;;;;2.42;1.00;;;;;;;;;;8277227;28;20359;-67
2021/05/28 06:17:57;;;;;;;14.55;1.77;;;;;;;;;;8277960;28;20352;-67
2021/05/28 06:22:02;;;;;;;0.98;0.88;;;;;;;;;;8295201;28;20049;-67
2021/05/28 06:26:06;;;;;;;2.58;1.10;;;;;;;;;;8295497;28;20435;-67
2021/05/28 06:30:12;;;;;;;1.83;1.00;;;;;;;;;;8276989;28;20092;-66
2021/05/28 06:34:17;;;;;;;2.35;0.90;;;;;;;;;;8293595;28;20383;-67
2021/05/28 06:38:22;;;;;;;1.70;1.10;;;;;;;;;;8294162;28;20375;-67
2021/05/28 06:42:26;;;;;;;2.53;1.10;;;;;;;;;;8296154;28;20569;-67
2021/05/28 06:46:31;;;;;;;1.70;1.20;;;;;;;;;;8293249;28;20685;-67
2021/05/28 06:50:40;;;;;;;1.40;0.90;;;;;;;;;;8294222;28;20382;-67
2021/05/28 06:54:44;;;;;;;8.40;1.10;;;;;;;;;;8292475;28;20486;-67
2021/05/28 06:58:50;;;;;;;1.13;0.85;;;;;;;;;;8294058;28;20398;-66
2021/05/28 07:02:55;;;;;;;3.88;1.20;;;;;;;;;;8293302;28;20479;-67
2021/05/28 07:07:01;;;;;;;1.10;0.90;;;;;;;;;;8274111;28;20467;-67
2021/05/28 07:11:07;;;;;;;2.10;1.05;;;;;;;;;;8292176;28;20056;-67
2021/05/28 07:15:12;;;;;;;4.20;1.30;;;;;;;;;;8294229;28;20348;-67
2021/05/28 07:19:17;;;;;;;0.95;0.85;;;;;;;;;;8292619;28;20472;-68
2021/05/28 07:23:23;;;;;;;1.85;1.27;;;;;;;;;;8292052;28;20471;-67
2021/05/28 07:27:28;;;;;;;1.47;1.00;;;;;;;;;;8274116;28;20390;-68
2021/05/28 07:31:33;;;;;;;1.17;0.98;;;;;;;;;;8293728;28;20464;-67
2021/05/28 07:35:37;;;;;;;1.98;0.90;;;;;;;;;;8290775;28;20075;-67
2021/05/28 07:39:42;;;;;;;1.38;0.85;;;;;;;;;;8293326;28;20451;-67
2021/05/28 07:43:46;;;;;;;0.85;0.70;;;;;;;;;;8292615;28;20676;-67
2021/05/28 07:47:51;;;;;;;0.65;0.60;;;;;;;;;;8291570;28;20382;-67
2021/05/28 07:51:56;;;;;;;1.13;0.70;;;;;;;;;;8293738;28;20497;-67
2021/05/28 07:56:05;;;;;;;4.32;1.13;;;;;;;;;;8292888;28;20380;-67
2021/05/28 08:00:11;;;;;;;1.15;0.85;;;;;;;;;;8290965;28;20472;-68
2021/05/28 08:04:16;;;;;;;1.33;0.70;;;;;;;;;;8294350;28;20048;-67
2021/05/28 08:08:26;;;;;;;3.47;1.27;;;;;;;;;;8291036;28;20463;-67
2021/05/28 08:12:31;;;;;;;2.40;0.93;;;;;;;;;;8290991;28;20455;-67
2021/05/28 08:16:36;;;;;;;1.55;0.60;;;;;;;;;;8292132;28;20413;-68
2021/05/28 08:20:42;;;;;;;1.30;0.60;;;;;;;;;;8292729;28;20483;-67
2021/05/28 08:24:45;;;;;;;2.08;0.90;;;;;;;;;;8260709;28;20378;-68
2021/05/28 08:28:50;;;;;;;4.07;1.98;;;;;;;;;;8292457;28;20497;-67
2021/05/28 08:32:55;;;;;;;2.47;0.90;;;;;;;;;;8292460;28;20463;-67
2021/05/28 08:37:00;;;;;;;3.33;1.50;;;;;;;;;;8292364;28;20447;-67
2021/05/28 08:41:06;;;;;;;2.75;0.80;;;;;;;;;;8290734;28;20467;-67
2021/05/28 08:45:14;;;;;;;1.40;0.68;;;;;;;;;;8273259;28;20370;-67
2021/05/28 08:49:22;;;;;;;1.25;0.70;;;;;;;;;;8278588;28;20471;-67
2021/05/28 08:53:28;;;;;;;2.20;1.20;;;;;;;;;;8279684;28;20351;-67
2021/05/28 08:57:33;;;;;;;0.82;0.60;;;;;;;;;;8296347;28;20057;-67
2021/05/28 09:01:36;;;;;;;1.50;1.05;;;;;;;;;;8296717;28;20375;-67
2021/05/28 09:05:41;;;;;;;3.70;1.40;;;;;;;;;;8297668;28;20401;-67
2021/05/28 09:09:46;;;;;;;4.80;2.47;;;;;;;;;;8295985;28;20052;-66
2021/05/28 09:13:57;;;;;;;3.38;1.67;;;;;;;;;;8296620;28;20497;-67
2021/05/28 09:18:02;;;;;;;4.65;1.40;;;;;;;;;;8296926;28;20465;-66
2021/05/28 09:22:10;;;;;;;0.90;0.70;;;;;;;;;;8279432;28;20329;-67
2021/05/28 09:26:15;;;;;;;4.00;1.70;;;;;;;;;;8296247;28;20379;-66
2021/05/28 09:30:20;;;;;;;2.50;1.23;;;;;;;;;;8279118;28;20405;-67
2021/05/28 09:34:28;;;;;;;1.73;1.05;;;;;;;;;;8295450;28;20448;-66
2021/05/28 09:38:33;;;;;;;8.10;2.42;;;;;;;;;;8280635;28;20357;-67
2021/05/28 09:43:02;;;;;;;4.55;1.48;;;;;;;;;;8277671;28;20744;-67
2021/05/28 09:47:13;;;;;;;3.13;1.30;;;;;;;;;;8297891;28;20403;-67
2021/05/28 09:51:17;;;;;;;1.10;0.70;;;;;;;;;;8280808;28;20070;-67
2021/05/28 09:55:25;;;;;;;1.73;0.82;;;;;;;;;;8295584;28;20478;-67
2021/05/28 09:59:45;;;;;;;0.68;0.60;;;;;;;;;;8295221;28;20382;-66
2021/05/28 10:04:08;;;;;;;0.90;0.60;;;;;;;;;;8295650;28;20493;-67
2021/05/28 10:08:14;;;;;;;1.25;0.73;;;;;;;;;;8278974;28;20083;-67
2021/05/28 10:12:18;;;;;;;3.38;0.85;;;;;;;;;;8295776;28;20283;-67
2021/05/28 10:16:24;;;;;;;2.88;0.90;;;;;;;;;;8293247;28;20379;-67
2021/05/28 10:20:30;;;;;;;1.15;0.60;;;;;;;;;;8293382;28;20396;-67
2021/05/28 10:24:35;;;;;;;0.93;0.70;;;;;;;;;;8295191;28;20391;-67
2021/05/28 10:28:46;;;;;;;2.53;0.80;;;;;;;;;;8294268;28;20362;-68
2021/05/28 10:33:24;;;;;;;1.95;0.80;;;;;;;;;;8261046;28;20466;-67
2021/05/28 10:37:30;;;;;;;5.28;0.70;;;;;;;;;;8296833;28;20053;-68
2021/05/28 10:41:38;;;;;;;1.98;0.70;;;;;;;;;;8276086;28;20357;-67
2021/05/28 10:46:11;;;;;;;1.25;0.65;;;;;;;;;;8275577;28;20467;-67
2021/05/28 10:50:16;;;;;;;4.35;0.98;;;;;;;;;;8293351;28;20455;-67
2021/05/28 10:54:25;;;;;;;6.13;0.93;;;;;;;;;;8293936;28;20052;-67
2021/05/28 10:59:10;;;;;;;6.18;0.90;;;;;;;;;;8294131;28;20581;-68
2021/05/28 11:03:16;;;;;;;1.58;0.90;;;;;;;;;;8293548;28;20482;-67
2021/05/28 11:07:20;;;;;;;1.08;0.60;;;;;;;;;;8296174;28;20485;-67
2021/05/28 11:11:41;;;;;;;0.88;0.52;;;;;;;;;;8292155;28;20455;-67
2021/05/28 11:15:58;;;;;;;0.55;0.45;;;;;;;;;;8292075;28;20079;-67
2021/05/28 11:20:27;;;;;;;0.88;0.60;;;;;;;;;;8276008;28;20467;-67
2021/05/28 11:24:48;;;;;;;1.30;0.88;;;;;;;;;;8274841;28;20064;-68
2021/05/28 11:29:01;;;;;;;1.48;0.82;;;;;;;;;;8292387;28;20368;-67
2021/05/28 11:33:06;;;;;;;2.10;0.80;;;;;;;;;;8275986;28;20118;-67
2021/05/28 11:37:47;;;;;;;1.17;0.77;;;;;;;;;;8291386;28;20460;-67
2021/05/28 11:42:03;;;;;;;1.38;1.00;;;;;;;;;;8292753;28;20471;-67
2021/05/28 11:46:07;;;;;;;2.22;1.10;;;;;;;;;;8290988;28;20471;-68
2021/05/28 11:50:18;;;;;;;3.78;2.92;;;;;;;;;;8290861;28;20466;-67
2021/05/28 11:54:28;;;;;;;3.10;1.40;;;;;;;;;;8291398;28;20075;-67
2021/05/28 11:58:35;;;;;;;4.25;1.67;;;;;;;;;;8273093;28;20460;-67
2021/05/28 12:02:49;;;;;;;7.70;1.37;;;;;;;;;;8291639;28;20472;-67
2021/05/28 12:06:54;;;;;;;8.20;1.50;;;;;;;;;;8272485;28;20344;-67
2021/05/28 12:11:07;;;;;;;4.70;1.50;;;;;;;;;;8274022;28;20355;-67
2021/05/28 12:15:13;;;;;;;1.92;1.30;;;;;;;;;;8274331;28;20424;-67
2021/05/28 12:19:17;;;;;;;3.92;1.80;;;;;;;;;;8290336;28;20375;-67
2021/05/28 12:23:28;;;;;;;1.90;1.58;;;;;;;;;;8272751;28;20418;-67
2021/05/28 12:27:33;;;;;;;2.97;2.10;;;;;;;;;;8291979;28;20351;-67
2021/05/28 12:31:41;;;;;;;3.33;1.85;;;;;;;;;;8289818;28;20482;-66
2021/05/28 12:35:56;;;;;;;3.25;1.40;;;;;;;;;;8272152;28;20505;-67
2021/05/28 12:40:10;;;;;;;1.90;1.35;;;;;;;;;;8290593;28;20394;-66
2021/05/28 12:44:21;;;;;;;3.03;1.20;;;;;;;;;;8290946;28;20546;-66
2021/05/28 12:48:49;;;;;;;3.50;1.17;;;;;;;;;;8291151;28;20476;-67
2021/05/28 12:52:55;;;;;;;1.38;1.00;;;;;;;;;;8275883;28;20431;-67
2021/05/28 12:57:06;;;;;;;1.38;0.95;;;;;;;;;;8293245;28;20056;-67
2021/05/28 13:01:17;;;;;;;3.88;1.00;;;;;;;;;;8273390;28;20483;-66
2021/05/28 13:05:32;;;;;;;1.27;0.70;;;;;;;;;;8290525;28;20447;-66
2021/05/28 13:09:38;;;;;;;1.27;0.77;;;;;;;;;;8289192;28;20443;-67
2021/05/28 13:13:48;;;;;;;8.25;1.00;;;;;;;;;;8290407;28;20340;-67
2021/05/28 13:18:00;;;;;;;2.72;0.73;;;;;;;;;;8272279;28;20374;-67
2021/05/28 13:22:05;;;;;;;0.80;0.80;;;;;;;;;;8272911;28;20413;-66
2021/05/28 13:26:10;;;;;;;4.97;0.80;;;;;;;;;;8291841;28;20462;-68
2021/05/28 13:30:16;;;;;;;1.10;0.82;;;;;;;;;;8289100;28;20483;-67
2021/05/28 13:34:21;;;;;;;5.13;1.30;;;;;;;;;;8293720;28;20409;-67
2021/05/28 13:38:25;;;;;;;2.17;1.00;;;;;;;;;;8297252;28;20371;-68
2021/05/28 13:42:30;;;;;;;6.75;2.25;;;;;;;;;;8278038;28;20481;-67
2021/05/28 13:46:36;;;;;;;1.20;0.77;;;;;;;;;;8295068;28;20079;-67
2021/05/28 13:50:42;;;;;;;3.03;0.77;;;;;;;;;;8293247;28;20462;-68
2021/05/28 13:54:47;;;;;;;2.05;1.02;;;;;;;;;;8295475;28;20060;-67
2021/05/28 13:58:52;;;;;;;1.17;1.00;;;;;;;;;;8297022;28;20463;-66
2021/05/28 14:02:57;;;;;;;2.40;1.00;;;;;;;;;;8295228;28;20049;-67
2021/05/28 14:07:03;;;;;;;5.95;1.13;;;;;;;;;;8293952;28;20056;-67
2021/05/28 14:11:08;;;;;;;8.32;1.27;;;;;;;;;;8278102;28;20786;-67
2021/05/28 14:15:16;;;;;;;2.25;1.13;;;;;;;;;;8294769;28;20052;-67
2021/05/28 14:19:26;;;;;;;2.78;0.85;;;;;;;;;;8278071;28;20482;-67
2021/05/28 14:23:33;;;;;;;1.38;0.70;;;;;;;;;;8296285;28;20352;-66
2021/05/28 14:27:38;;;;;;;2.33;0.90;;;;;;;;;;8293845;28;20478;-67
2021/05/28 14:31:45;;;;;;;2.25;1.00;;;;;;;;;;8275982;28;20109;-68
2021/05/28 14:35:50;;;;;;;0.70;0.47;;;;;;;;;;8276673;28;20467;-66
2021/05/28 14:39:55;;;;;;;3.58;1.00;;;;;;;;;;8293238;28;20052;-66
2021/05/28 14:44:06;;;;;;;3.08;0.90;;;;;;;;;;8293643;28;20467;-67
2021/05/28 14:48:11;;;;;;;1.40;0.70;;;;;;;;;;8292950;28;20056;-68
2021/05/28 14:52:26;;;;;;;2.70;0.73;;;;;;;;;;8293360;28;20482;-66
2021/05/28 14:56:31;;;;;;;2.15;1.02;;;;;;;;;;8292348;28;20364;-66
2021/05/28 15:00:36;;;;;;;4.38;0.90;;;;;;;;;;8292901;28;20444;-68
2021/05/28 15:04:41;;;;;;;2.45;1.05;;;;;;;;;;8296660;28;20080;-66
2021/05/28 15:08:47;;;;;;;5.07;1.20;;;;;;;;;;8292168;28;20484;-66
2021/05/28 15:12:51;;;;;;;3.90;1.30;;;;;;;;;;8294234;28;20053;-66
2021/05/28 15:16:56;;;;;;;1.70;0.85;;;;;;;;;;8273927;28;20390;-66
2021/05/28 15:21:03;;;;;;;1.75;0.90;;;;;;;;;;8292655;28;20387;-67
2021/05/28 15:25:11;;;;;;;2.20;1.35;;;;;;;;;;8291439;28;20874;-66
2021/05/28 15:29:16;;;;;;;;;;;;;;;;;;8291875;28;20474;-66
2021/05/28 15:33:22;;;;;;;3.75;0.93;;;;;;;;;;8291069;28;20333;-67
2021/05/28 15:37:27;;;;;;;2.17;1.00;;;;;;;;;;8289998;28;20451;-67
2021/05/28 15:41:36;;;;;;;1.15;0.90;;;;;;;;;;8291854;28;20473;-67
2021/05/28 15:45:41;;;;;;;1.73;1.10;;;;;;;;;;8273458;28;20082;-67
2021/05/28 15:49:47;;;;;;;9.27;6.18;;;;;;;;;;8291474;28;20071;-66
2021/05/28 15:53:53;;;;;;;5.35;2.08;;;;;;;;;;8292109;28;20462;-67
2021/05/28 15:57:57;;;;;;;5.00;1.88;;;;;;;;;;8292125;28;20367;-67
2021/05/28 16:02:03;;;;;;;5.28;1.90;;;;;;;;;;8293352;28;20447;-66
2021/05/28 16:06:08;;;;;;;2.65;1.40;;;;;;;;;;8274193;28;20471;-67
2021/05/28 16:10:13;;;;;;;4.10;1.63;;;;;;;;;;8291725;28;20486;-66
2021/05/28 16:14:20;;;;;;;2.25;1.33;;;;;;;;;;8290126;28;20368;-67
2021/05/28 16:18:27;;;;;;;4.13;1.65;;;;;;;;;;8273083;28;20455;-66
2021/05/28 16:22:33;;;;;;;2.40;1.42;;;;;;;;;;8291090;28;20462;-66
2021/05/28 16:26:55;;;;;;;2.88;1.85;;;;;;;;;;8290658;28;20075;-67
2021/05/28 16:30:58;;;;;;;3.83;1.73;;;;;;;;;;8290724;28;20448;-67
2021/05/28 16:35:04;;;;;;;35.33;13.13;;;;;;;;;;8291526;28;20371;-66
2021/05/28 16:39:09;;;;;;;3.40;2.70;;;;;;;;;;8292475;28;20070;-66
2021/05/28 16:43:14;;;;;;;4.25;2.72;;;;;;;;;;8290548;28;20475;-66
2021/05/28 16:47:18;;;;;;;4.90;1.90;;;;;;;;;;8290427;28;20468;-66
2021/05/28 16:51:23;;;;;;;6.65;2.55;;;;;;;;;;8290396;28;20340;-66
2021/05/28 16:55:28;;;;;;;2.58;1.10;;;;;;;;;;8289482;28;20444;-66
2021/05/28 16:59:31;;;;;;;2.92;1.30;;;;;;;;;;8289593;28;20452;-66
2021/05/28 17:03:36;;;;;;;3.67;1.90;;;;;;;;;;8289731;28;20064;-67
2021/05/28 17:07:41;;;;;;;2.80;1.50;;;;;;;;;;8274277;28;20513;-67
2021/05/28 17:11:46;;;;;;;1.48;1.00;;;;;;;;;;8296455;28;20471;-66
2021/05/28 17:15:52;;;;;;;3.88;1.75;;;;;;;;;;8279034;28;20090;-66
2021/05/28 17:19:57;;;;;;;3.28;2.08;;;;;;;;;;8296170;28;20053;-67
2021/05/28 17:24:03;;;;;;;2.50;1.48;;;;;;;;;;8296936;28;20477;-66
2021/05/28 17:28:09;;;;;;;3.90;1.35;;;;;;;;;;8297034;28;20363;-66
2021/05/28 17:32:14;;;;;;;4.43;1.30;;;;;;;;;;8298136;28;20458;-66
2021/05/28 17:36:19;;;;;;;4.18;1.58;;;;;;;;;;8297244;28;20521;-66
2021/05/28 17:40:25;;;;;;;4.78;1.90;;;;;;;;;;8296426;28;20339;-67
2021/05/28 17:44:29;;;;;;;6.65;2.53;;;;;;;;;;8295065;28;20477;-67
2021/05/28 17:48:33;;;;;;;4.95;2.42;;;;;;;;;;8295048;28;20436;-66
2021/05/28 17:52:38;;;;;;;3.67;2.17;;;;;;;;;;8297357;28;20478;-66
2021/05/28 17:56:43;;;;;;;2.90;1.83;;;;;;;;;;8296036;28;20366;-66
2021/05/28 18:00:48;;;;;;;6.88;1.95;;;;;;;;;;8294689;28;20475;-67
2021/05/28 18:04:53;;;;;;;5.35;2.20;;;;;;;;;;8278538;28;20410;-66
2021/05/28 18:08:58;;;;;;;7.32;3.10;;;;;;;;;;8295066;28;20439;-66
2021/05/28 18:13:03;;;;;;;9.13;3.08;;;;;;;;;;8295223;28;20629;-66
2021/05/28 18:17:08;;;;;;;8.90;4.53;;;;;;;;;;8294772;28;20448;-66
2021/05/28 18:21:13;;;;;;;8.20;4.30;;;;;;;;;;8276750;28;20060;-66
2021/05/28 18:25:20;;;;;;;20.98;9.88;;;;;;;;;;8294210;28;20481;-67
2021/05/28 18:29:23;;;;;;;5.88;3.17;;;;;;;;;;8275829;28;20052;-66
2021/05/28 18:33:28;;;;;;;35.88;15.25;;;;;;;;;;8293104;28;20380;-66
2021/05/28 18:37:33;;;;;;;26.45;11.20;;;;;;;;;;8295049;28;20394;-67
2021/05/28 18:41:39;;;;;;;17.83;9.85;;;;;;;;;;8294704;28;20365;-66
2021/05/28 18:45:44;;;;;;;19.05;9.85;;;;;;;;;;8294737;28;20485;-66
2021/05/28 18:49:48;;;;;;;18.25;7.90;;;;;;;;;;8275844;28;20379;-67
2021/05/28 18:53:53;;;;;;;10.77;5.78;;;;;;;;;;8274804;28;20485;-66
2021/05/28 18:57:59;;;;;;;10.07;5.20;;;;;;;;;;8293771;28;20386;-66
2021/05/28 19:02:03;;;;;;;8.48;4.32;;;;;;;;;;8277583;28;20463;-66
2021/05/28 19:06:12;;;;;;;10.80;4.30;;;;;;;;;;8293194;28;20592;-67
2021/05/28 19:10:18;;;;;;;11.52;4.20;;;;;;;;;;8291427;28;20473;-66
2021/05/28 19:14:22;;;;;;;13.00;4.40;;;;;;;;;;8274166;28;20479;-66
2021/05/28 19:18:28;;;;;;;13.65;5.95;;;;;;;;;;8292350;28;20662;-66
2021/05/28 19:22:32;;;;;;;10.20;4.10;;;;;;;;;;8291416;28;20380;-67
2021/05/28 19:26:37;;;;;;;10.77;4.80;;;;;;;;;;8294338;28;20366;-66
2021/05/28 19:30:45;;;;;;;11.65;5.93;;;;;;;;;;8292224;28;20115;-66
2021/05/28 19:34:50;;;;;;;12.15;6.35;;;;;;;;;;8292798;28;20372;-66
2021/05/28 19:38:56;;;;;;;11.10;4.70;;;;;;;;;;8291582;28;20391;-66
2021/05/28 19:43:02;;;;;;;14.75;4.30;;;;;;;;;;8293244;28;20460;-66
2021/05/28 19:47:07;;;;;;;8.82;4.30;;;;;;;;;;8257830;28;20375;-67
2021/05/28 19:51:13;;;;;;;10.13;4.32;;;;;;;;;;8258487;28;20049;-66
2021/05/28 19:59:43;;;;;;;24.33;10.10;;;;;;;;;;8259404;28;20368;-66
2021/05/28 20:03:48;;;;;;;36.78;12.40;;;;;;;;;;8261074;28;20460;-66
2021/05/28 20:07:55;;;;;;;28.20;11.43;;;;;;;;;;8258705;28;20060;-67
2021/05/28 20:14:24;;;;;;;40.63;14.15;;;;;;;;;;8260075;28;20061;-66
2021/05/28 20:16:27;;;;;;;37.40;13.55;;;;;;;;;;8258180;28;20483;-66
2021/05/28 20:20:32;;;;;;;43.20;17.00;;;;;;;;;;8258125;28;20342;-67
2021/05/28 20:24:38;;;;;;;37.63;15.30;;;;;;;;;;8257809;28;20387;-66
2021/05/28 20:28:44;;;;;;;36.03;14.07;;;;;;;;;;8257894;28;20475;-66
2021/05/28 20:32:49;;;;;;;46.70;17.02;;;;;;;;;;8259965;28;20340;-66
2021/05/28 20:36:54;;;;;;;32.00;12.88;;;;;;;;;;8257853;28;20444;-66
2021/05/28 20:41:01;;;;;;;36.65;13.38;;;;;;;;;;8257837;28;20456;-66
2021/05/28 20:45:11;;;;;;;31.58;11.25;;;;;;;;;;8265196;28;20466;-66
2021/05/28 20:49:16;;;;;;;27.83;11.77;;;;;;;;;;8290105;28;20383;-67
2021/05/28 20:53:20;;;;;;;21.20;8.55;;;;;;;;;;8290282;28;20459;-66
2021/05/28 21:01:48;;;;;;;18.42;7.97;;;;;;;;;;8289181;28;20052;-66
2021/05/28 21:05:53;;;;;;;10.75;4.80;;;;;;;;;;8291059;28;20416;-66
2021/05/28 21:09:58;;;;;;;9.63;5.13;;;;;;;;;;8290532;28;20455;-67
2021/05/28 21:14:04;;;;;;;11.68;5.60;;;;;;;;;;8291406;28;20591;-66
2021/05/28 21:18:09;;;;;;;13.27;6.40;;;;;;;;;;8273124;28;20421;-67
2021/05/28 21:22:14;;;;;;;14.93;6.70;;;;;;;;;;8289994;28;20080;-66
2021/05/28 21:26:19;;;;;;;21.05;8.65;;;;;;;;;;8289579;28;20463;-66
2021/05/28 21:30:24;;;;;;;32.72;13.13;;;;;;;;;;8289329;28;20510;-66
2021/05/28 21:34:29;;;;;;;48.95;18.20;;;;;;;;;;8290401;28;20371;-67
2021/05/28 21:38:34;;;;;;;50.80;17.23;;;;;;;;;;8255499;28;20395;-66
2021/05/28 21:42:40;;;;;;;35.05;13.70;;;;;;;;;;8289269;28;20463;-66
2021/05/28 21:46:49;;;;;;;29.70;10.52;;;;;;;;;;8289500;28;20053;-67
2021/05/28 21:50:57;;;;;;;41.60;14.65;;;;;;;;;;8289307;28;20099;-66
2021/05/28 21:55:09;;;;;;;63.70;20.48;;;;;;;;;;8276153;28;20079;-66
2021/05/28 21:59:14;;;;;;;80.80;24.20;;;;;;;;;;8298872;28;20360;-66
2021/05/28 22:03:19;;;;;;;60.90;18.45;;;;;;;;;;8296576;28;20422;-66
2021/05/28 22:07:23;;;;;;;54.50;16.55;;;;;;;;;;8295244;28;20471;-66
2021/05/28 22:11:29;;;;;;;26.80;8.65;;;;;;;;;;8295690;28;20435;-67
2021/05/28 22:15:34;;;;;;;15.90;7.05;;;;;;;;;;8296814;28;20088;-66
2021/05/28 22:19:39;;;;;;;18.50;7.03;;;;;;;;;;8294141;28;20479;-66
2021/05/28 22:23:44;;;;;;;12.98;6.20;;;;;;;;;;8293285;28;20482;-67
2021/05/28 22:28:02;;;;;;;10.70;5.30;;;;;;;;;;8276820;28;20467;-67
2021/05/28 22:36:37;;;;;;;13.43;5.45;;;;;;;;;;8294153;28;20462;-66
2021/05/28 22:40:42;;;;;;;9.23;4.80;;;;;;;;;;8294525;28;20383;-66
2021/05/28 22:44:49;;;;;;;9.48;4.35;;;;;;;;;;8293438;28;20627;-66
2021/05/28 22:48:55;;;;;;;8.45;4.90;;;;;;;;;;8293295;28;20451;-66
2021/05/28 22:53:00;;;;;;;10.80;4.97;;;;;;;;;;8293661;28;20483;-66
2021/05/28 22:57:06;;;;;;;7.43;3.45;;;;;;;;;;8293210;28;20359;-66
2021/05/28 23:01:13;;;;;;;6.47;3.05;;;;;;;;;;8296209;28;20470;-67
2021/05/28 23:05:16;;;;;;;8.02;4.05;;;;;;;;;;8292237;28;20486;-67
2021/05/28 23:09:46;;;;;;;34.30;10.35;;;;;;;;;;8294086;28;20471;-66
2021/05/28 23:13:54;;;;;;;15.65;7.25;;;;;;;;;;8295528;28;20632;-66
2021/05/28 23:17:58;;;;;;;9.05;4.47;;;;;;;;;;8275695;28;20045;-66
2021/05/28 23:22:03;;;;;;;9.07;5.32;;;;;;;;;;8292721;28;20486;-66
2021/05/28 23:26:10;;;;;;;8.02;4.32;;;;;;;;;;8293610;28;20379;-66
2021/05/28 23:30:16;;;;;;;8.57;4.15;;;;;;;;;;8293021;28;20063;-66
2021/05/28 23:34:20;;;;;;;8.45;4.50;;;;;;;;;;8292215;28;20361;-66
2021/05/28 23:38:25;;;;;;;8.57;3.85;;;;;;;;;;8290916;28;20390;-66
2021/05/28 23:42:32;;;;;;;7.90;4.32;;;;;;;;;;8293657;28;20379;-66
2021/05/28 23:46:36;;;;;;;14.43;6.65;;;;;;;;;;8291968;28;20459;-66
2021/05/28 23:55:01;;;;;;;10.77;5.13;;;;;;;;;;8290643;28;20477;-66
2021/05/28 23:59:07;;;;;;;10.23;5.28;;;;;;;;;;8291341;28;20466;-66
